createdAt,value
2022-08-12T00:00:03.174Z,3.05
2022-08-12T00:02:48.423Z,2.78
2022-08-12T00:05:35.064Z,2.72
2022-08-12T00:08:30.859Z,2.72
2022-08-12T00:11:23.934Z,3.03
2022-08-12T00:14:09.003Z,2.63
2022-08-12T00:16:56.124Z,2.60
2022-08-12T00:19:41.785Z,3.17
2022-08-12T00:22:28.446Z,3.10
2022-08-12T00:25:17.735Z,3.08
2022-08-12T00:28:05.413Z,3.20
2022-08-12T00:30:51.035Z,2.70
2022-08-12T00:33:38.685Z,2.65
2022-08-12T00:36:43.305Z,3.08
2022-08-12T00:39:31.273Z,3.10
2022-08-12T00:42:10.741Z,3.17
2022-08-12T00:44:42.440Z,3.08
2022-08-12T00:47:24.089Z,2.97
2022-08-12T00:49:55.106Z,3.42
2022-08-12T00:52:24.004Z,3.08
2022-08-12T00:54:53.984Z,3.40
2022-08-12T00:57:25.375Z,3.20
2022-08-12T00:59:57.615Z,3.30
2022-08-12T01:02:28.589Z,3.47
2022-08-12T01:05:15.896Z,3.05
2022-08-12T01:08:01.986Z,3.28
2022-08-12T01:10:49.608Z,3.10
2022-08-12T01:13:20.499Z,2.88
2022-08-12T01:15:52.744Z,3.17
2022-08-12T01:18:21.787Z,3.00
2022-08-12T01:21:06.692Z,3.47
2022-08-12T01:23:50.183Z,3.22
2022-08-12T01:26:23.379Z,3.17
2022-08-12T01:28:57.084Z,3.22
2022-08-12T01:31:27.827Z,3.90
2022-08-12T01:34:03.616Z,3.38
2022-08-12T01:36:36.559Z,3.45
2022-08-12T01:39:05.660Z,3.53
2022-08-12T01:41:39.949Z,3.63
2022-08-12T01:44:09.495Z,3.30
2022-08-12T01:46:45.903Z,3.28
2022-08-12T01:49:39.608Z,3.28
2022-08-12T01:52:20.233Z,3.90
2022-08-12T01:54:52.853Z,4.00
2022-08-12T01:57:58.358Z,3.87
2022-08-12T02:00:20.230Z,3.63
2022-08-12T02:03:17.997Z,3.60
2022-08-12T02:06:23.498Z,3.70
2022-08-12T02:09:13.044Z,3.83
2022-08-12T02:11:57.213Z,4.10
2022-08-12T02:14:49.560Z,3.73
2022-08-12T02:17:56.009Z,3.87
2022-08-12T02:20:50.981Z,3.97
2022-08-12T02:23:20.615Z,4.30
2022-08-12T02:25:48.840Z,3.90
2022-08-12T02:28:16.992Z,4.23
2022-08-12T02:30:46.976Z,4.23
2022-08-12T02:33:15.195Z,4.33
2022-08-12T02:35:45.692Z,3.60
2022-08-12T02:38:13.877Z,3.60
2022-08-12T02:40:45.447Z,3.97
2022-08-12T02:43:18.413Z,4.30
2022-08-12T02:45:53.601Z,4.53
2022-08-12T02:48:27.940Z,3.60
2022-08-12T02:50:58.731Z,3.63
2022-08-12T02:53:28.240Z,4.60
2022-08-12T02:55:57.503Z,4.47
2022-08-12T02:58:33.264Z,4.50
2022-08-12T03:01:06.707Z,3.97
2022-08-12T03:03:36.020Z,4.57
2022-08-12T03:06:07.416Z,4.70
2022-08-12T03:08:43.465Z,4.20
2022-08-12T03:11:18.105Z,4.13
2022-08-12T03:13:52.264Z,5.47
2022-08-12T03:16:22.323Z,4.50
2022-08-12T03:18:51.621Z,4.63
2022-08-12T03:22:05.809Z,4.90
2022-08-12T03:24:09.558Z,4.50
2022-08-12T03:26:38.088Z,4.80
2022-08-12T03:29:07.154Z,4.67
2022-08-12T03:31:36.424Z,5.13
2022-08-12T03:34:07.485Z,4.53
2022-08-12T03:36:37.827Z,5.10
2022-08-12T03:39:36.230Z,4.70
2022-08-12T03:42:17.205Z,5.30
2022-08-12T03:45:14.542Z,4.60
2022-08-12T03:48:06.346Z,4.67
2022-08-12T03:50:51.879Z,3.60
2022-08-12T03:53:46.173Z,4.27
2022-08-12T03:56:32.414Z,4.40
2022-08-12T03:59:19.951Z,4.77
2022-08-12T04:01:52.597Z,4.47
2022-08-12T04:04:23.488Z,4.73
2022-08-12T04:06:52.130Z,4.93
2022-08-12T04:09:22.384Z,4.47
2022-08-12T04:12:08.782Z,4.07
2022-08-12T04:14:37.765Z,4.87
2022-08-12T04:17:06.345Z,5.00
2022-08-12T04:19:35.582Z,4.83
2022-08-12T04:22:03.965Z,4.63
2022-08-12T04:24:34.566Z,4.90
2022-08-12T04:27:03.547Z,4.93
2022-08-12T04:30:17.009Z,4.73
2022-08-12T04:32:19.392Z,5.23
2022-08-12T04:34:48.496Z,5.03
2022-08-12T04:37:17.076Z,5.10
2022-08-12T04:39:46.451Z,5.43
2022-08-12T04:42:14.647Z,4.80
2022-08-12T04:44:43.300Z,4.53
2022-08-12T04:47:14.180Z,5.03
2022-08-12T04:49:43.397Z,5.17
2022-08-12T04:52:12.604Z,5.20
2022-08-12T04:54:40.399Z,4.43
2022-08-12T04:57:09.727Z,4.97
2022-08-12T04:59:47.193Z,5.20
2022-08-12T05:02:21.677Z,4.67
2022-08-12T05:04:51.112Z,4.80
2022-08-12T05:07:20.481Z,4.97
2022-08-12T05:10:01.030Z,5.10
2022-08-12T05:12:36.627Z,5.20
2022-08-12T05:15:11.379Z,5.43
2022-08-12T05:17:53.620Z,5.23
2022-08-12T05:20:22.604Z,5.20
2022-08-12T05:22:56.923Z,5.30
2022-08-12T05:25:25.507Z,5.03
2022-08-12T05:27:58.775Z,4.72
2022-08-12T05:30:27.334Z,4.32
2022-08-12T05:32:59.073Z,4.70
2022-08-12T05:35:28.905Z,4.78
2022-08-12T05:38:11.958Z,4.55
2022-08-12T05:40:40.255Z,4.18
2022-08-12T05:43:08.476Z,4.65
2022-08-12T05:45:39.222Z,4.82
2022-08-12T05:48:09.554Z,4.20
2022-08-12T05:50:37.427Z,3.95
2022-08-12T05:53:07.171Z,4.45
2022-08-12T05:55:35.331Z,4.30
2022-08-12T05:58:04.921Z,4.50
2022-08-12T06:00:33.375Z,4.53
2022-08-12T06:03:02.504Z,4.10
2022-08-12T06:05:34.327Z,4.78
2022-08-12T06:12:04.924Z,4.82
2022-08-12T06:14:36.297Z,4.05
2022-08-12T06:17:05.949Z,4.15
2022-08-12T06:20:27.196Z,4.78
2022-08-12T06:22:21.575Z,4.22
2022-08-12T06:24:52.917Z,4.30
2022-08-12T06:27:21.515Z,4.13
2022-08-12T06:30:09.072Z,4.13
2022-08-12T06:33:24.633Z,4.32
2022-08-12T06:36:03.595Z,4.18
2022-08-12T06:38:32.381Z,3.50
2022-08-12T06:41:19.751Z,3.42
2022-08-12T06:44:06.771Z,3.83
2022-08-12T06:46:38.970Z,3.47
2022-08-12T06:49:08.674Z,3.72
2022-08-12T06:51:36.674Z,3.78
2022-08-12T06:54:04.862Z,3.28
2022-08-12T06:57:02.387Z,3.42
2022-08-12T06:59:22.941Z,3.47
2022-08-12T07:01:52.003Z,3.35
2022-08-12T07:04:37.393Z,3.95
2022-08-12T07:07:07.350Z,4.18
2022-08-12T07:10:05.054Z,3.38
2022-08-12T07:12:27.691Z,3.25
2022-08-12T07:14:57.093Z,3.30
2022-08-12T07:17:25.277Z,3.03
2022-08-12T07:19:53.880Z,3.47
2022-08-12T07:22:23.472Z,3.08
2022-08-12T07:25:11.732Z,2.88
2022-08-12T07:27:43.447Z,2.97
2022-08-12T07:30:12.253Z,2.92
2022-08-12T07:32:40.365Z,3.15
2022-08-12T07:35:09.131Z,3.40
2022-08-12T07:37:42.750Z,3.00
2022-08-12T07:40:12.869Z,2.95
2022-08-12T07:42:44.207Z,3.50
2022-08-12T07:45:13.216Z,2.60
2022-08-12T07:47:43.512Z,3.17
2022-08-12T07:50:23.005Z,2.67
2022-08-12T07:52:51.935Z,2.80
2022-08-12T07:55:19.822Z,2.80
2022-08-12T07:57:58.871Z,3.28
2022-08-12T08:00:29.114Z,2.80
2022-08-12T08:02:58.808Z,2.92
2022-08-12T08:05:30.896Z,2.50
2022-08-12T08:08:01.958Z,2.97
2022-08-12T08:10:31.003Z,2.80
2022-08-12T08:13:05.156Z,2.72
2022-08-12T08:16:01.276Z,2.60
2022-08-12T08:18:26.863Z,2.50
2022-08-12T08:20:57.614Z,2.55
2022-08-12T08:23:55.810Z,3.30
2022-08-12T08:26:25.057Z,2.80
2022-08-12T08:28:54.460Z,2.80
2022-08-12T08:31:22.696Z,2.85
2022-08-12T08:34:09.052Z,3.08
2022-08-12T08:36:39.999Z,2.80
2022-08-12T08:39:08.586Z,2.60
2022-08-12T08:42:19.266Z,2.10
2022-08-12T08:44:43.773Z,2.40
2022-08-12T08:47:12.811Z,2.88
2022-08-12T08:49:41.203Z,2.33
2022-08-12T08:52:10.881Z,1.88
2022-08-12T08:54:40.521Z,2.40
2022-08-12T08:57:09.333Z,2.10
2022-08-12T08:59:37.423Z,2.75
2022-08-12T09:05:14.553Z,2.10
2022-08-12T09:07:59.079Z,2.03
2022-08-12T09:10:34.124Z,2.30
2022-08-12T09:13:23.657Z,2.00
2022-08-12T09:15:57.675Z,1.73
2022-08-12T09:18:33.069Z,1.90
2022-08-12T09:21:02.757Z,1.90
2022-08-12T09:23:58.864Z,1.80
2022-08-12T09:26:22.813Z,1.77
2022-08-12T09:28:56.436Z,1.83
2022-08-12T09:32:06.611Z,1.95
2022-08-12T09:34:26.692Z,1.70
2022-08-12T09:37:01.476Z,2.08
2022-08-12T09:40:05.442Z,1.40
2022-08-12T09:42:43.289Z,1.58
2022-08-12T09:46:05.093Z,1.67
2022-08-12T09:48:19.942Z,1.38
2022-08-12T09:50:55.486Z,1.48
2022-08-12T09:53:29.389Z,1.80
2022-08-12T09:56:57.139Z,1.58
2022-08-12T09:58:57.818Z,1.90
2022-08-12T10:01:34.621Z,1.58
2022-08-12T10:04:19.893Z,1.35
2022-08-12T10:06:54.010Z,1.67
2022-08-12T10:09:28.623Z,1.58
2022-08-12T10:12:31.463Z,1.73
2022-08-12T10:15:01.291Z,1.75
2022-08-12T10:17:29.241Z,1.67
2022-08-12T10:19:59.752Z,1.60
2022-08-12T10:22:38.803Z,1.80
2022-08-12T10:26:33.736Z,1.45
2022-08-12T10:28:32.342Z,1.52
2022-08-12T10:31:01.557Z,1.83
2022-08-12T10:33:33.577Z,1.48
2022-08-12T10:36:02.456Z,1.85
2022-08-12T10:38:38.305Z,1.70
2022-08-12T10:41:56.747Z,1.65
2022-08-12T10:44:16.980Z,2.00
2022-08-12T10:46:49.126Z,1.80
2022-08-12T10:50:03.314Z,1.70
2022-08-12T10:52:33.190Z,1.40
2022-08-12T10:54:57.378Z,1.75
2022-08-12T10:58:12.463Z,1.80
2022-08-12T11:00:30.230Z,1.35
2022-08-12T11:04:23.068Z,1.67
2022-08-12T11:07:08.267Z,1.70
2022-08-12T11:08:42.484Z,1.88
2022-08-12T11:12:07.895Z,1.70
2022-08-12T11:14:05.758Z,1.67
2022-08-12T11:16:33.932Z,1.77
2022-08-12T11:19:05.588Z,1.58
2022-08-12T11:21:57.729Z,1.58
2022-08-12T11:24:31.796Z,1.98
2022-08-12T11:27:07.750Z,1.63
2022-08-12T11:30:01.923Z,1.30
2022-08-12T11:32:26.694Z,1.88
2022-08-12T11:34:55.279Z,1.75
2022-08-12T11:37:27.013Z,1.92
2022-08-12T11:42:38.162Z,1.60
2022-08-12T11:45:16.272Z,1.63
2022-08-12T11:47:44.495Z,2.00
2022-08-12T11:50:19.410Z,2.00
2022-08-12T11:52:55.457Z,1.90
2022-08-12T11:55:24.039Z,1.50
2022-08-12T11:58:27.986Z,1.98
2022-08-12T12:03:44.012Z,1.63
2022-08-12T12:06:16.360Z,1.40
2022-08-12T12:08:50.576Z,1.67
2022-08-12T12:11:19.650Z,1.50
2022-08-12T12:14:06.274Z,1.33
2022-08-12T12:16:38.085Z,1.40
2022-08-12T12:19:08.808Z,1.52
2022-08-12T12:21:47.227Z,1.40
2022-08-12T12:24:21.381Z,1.25
2022-08-12T12:27:00.837Z,1.10
2022-08-12T12:30:19.273Z,1.17
2022-08-12T12:32:19.274Z,1.40
2022-08-12T12:35:14.255Z,1.30
2022-08-12T12:38:04.666Z,1.13
2022-08-12T12:40:39.718Z,1.38
2022-08-12T12:43:08.878Z,1.15
2022-08-12T12:45:39.622Z,1.40
2022-08-12T12:48:13.617Z,1.40
2022-08-12T12:50:45.702Z,1.20
2022-08-12T12:54:05.187Z,1.30
2022-08-12T12:56:15.829Z,1.20
2022-08-12T12:58:43.980Z,1.60
2022-08-12T13:01:25.496Z,1.38
2022-08-12T13:03:56.397Z,1.50
2022-08-12T13:06:30.799Z,1.20
2022-08-12T13:09:03.129Z,1.40
2022-08-12T13:11:32.766Z,1.38
2022-08-12T13:14:28.249Z,1.50
2022-08-12T13:17:02.871Z,1.20
2022-08-12T13:19:38.682Z,1.27
2022-08-12T13:22:18.559Z,1.48
2022-08-12T13:24:54.585Z,1.52
2022-08-12T13:27:28.219Z,1.33
2022-08-12T13:30:06.510Z,1.50
2022-08-12T13:32:37.282Z,1.48
2022-08-12T13:35:20.431Z,1.40
2022-08-12T13:37:56.146Z,1.00
2022-08-12T13:40:25.068Z,1.33
2022-08-12T13:42:57.573Z,1.38
2022-08-12T13:45:25.767Z,1.60
2022-08-12T13:48:00.155Z,1.50
2022-08-12T13:50:32.522Z,1.63
2022-08-12T13:53:16.693Z,1.35
2022-08-12T13:55:59.446Z,1.60
2022-08-12T13:58:30.649Z,1.30
2022-08-12T14:01:05.437Z,1.50
2022-08-12T14:03:50.916Z,1.55
2022-08-12T14:06:20.232Z,1.50
2022-08-12T14:08:49.799Z,1.30
2022-08-12T14:11:18.237Z,1.60
2022-08-12T14:14:03.376Z,1.30
2022-08-12T14:16:46.772Z,1.27
2022-08-12T14:19:24.960Z,1.35
2022-08-12T14:22:01.246Z,1.23
2022-08-12T14:24:35.563Z,1.55
2022-08-12T14:27:08.988Z,1.48
2022-08-12T14:30:04.610Z,1.30
2022-08-12T14:32:26.579Z,1.27
2022-08-12T14:34:56.689Z,1.50
2022-08-12T14:37:57.958Z,1.33
2022-08-12T14:40:18.621Z,1.17
2022-08-12T14:42:54.580Z,1.38
2022-08-12T14:45:23.003Z,1.58
2022-08-12T14:47:58.386Z,1.33
2022-08-12T14:50:58.890Z,1.40
2022-08-12T14:59:23.317Z,1.40
2022-08-12T15:01:52.070Z,1.30
2022-08-12T15:04:28.694Z,1.30
2022-08-12T15:06:58.512Z,1.00
2022-08-12T15:09:29.256Z,1.50
2022-08-12T15:12:03.263Z,1.20
2022-08-12T15:14:31.589Z,1.33
2022-08-12T15:17:00.670Z,1.23
2022-08-12T15:20:11.748Z,1.20
2022-08-12T15:22:37.267Z,1.13
2022-08-12T15:25:08.034Z,1.08
2022-08-12T15:28:03.835Z,1.27
2022-08-12T15:30:31.350Z,1.10
2022-08-12T15:32:59.879Z,1.05
2022-08-12T15:35:49.985Z,1.40
2022-08-12T15:38:21.189Z,1.10
2022-08-12T15:40:51.257Z,1.60
2022-08-12T15:43:50.934Z,1.30
2022-08-12T15:46:14.861Z,1.25
2022-08-12T15:48:47.068Z,1.48
2022-08-12T15:51:59.714Z,1.50
2022-08-12T15:54:30.888Z,1.23
2022-08-12T15:57:07.769Z,1.33
2022-08-12T16:00:00.388Z,1.30
2022-08-12T16:02:26.843Z,1.25
2022-08-12T16:04:55.265Z,1.83
2022-08-12T16:07:29.664Z,1.50
2022-08-12T16:10:05.616Z,1.55
2022-08-12T16:12:39.616Z,1.85
2022-08-12T16:15:08.576Z,1.30
2022-08-12T16:18:25.961Z,1.55
2022-08-12T16:20:33.014Z,1.15
2022-08-12T16:23:26.938Z,1.20
2022-08-12T16:26:05.582Z,1.40
2022-08-12T16:28:34.559Z,1.38
2022-08-12T16:31:02.671Z,1.50
2022-08-12T16:34:00.012Z,1.50
2022-08-12T16:36:25.536Z,1.50
2022-08-12T16:38:53.410Z,1.48
2022-08-12T16:41:23.438Z,1.55
2022-08-12T16:43:53.409Z,1.20
2022-08-12T16:46:33.427Z,1.55
2022-08-12T16:49:08.573Z,1.40
2022-08-12T16:51:40.186Z,1.20
2022-08-12T16:54:12.771Z,1.65
2022-08-12T16:56:50.778Z,1.75
2022-08-12T16:59:23.797Z,1.33
2022-08-12T17:01:51.976Z,1.73
2022-08-12T17:04:24.262Z,1.83
2022-08-12T17:06:52.871Z,1.70
2022-08-12T17:09:20.866Z,1.75
2022-08-12T17:11:50.506Z,1.60
2022-08-12T17:14:23.049Z,1.50
2022-08-12T17:16:54.964Z,1.65
2022-08-12T17:20:28.878Z,1.40
2022-08-12T17:22:15.399Z,1.40
2022-08-12T17:24:54.829Z,1.42
2022-08-12T17:27:26.256Z,1.48
2022-08-12T17:30:02.510Z,1.20
2022-08-12T17:32:33.600Z,1.38
2022-08-12T17:35:20.122Z,1.20
2022-08-12T17:37:50.734Z,1.40
2022-08-12T17:40:34.589Z,1.40
2022-08-12T17:43:54.701Z,1.60
2022-08-12T17:45:59.701Z,1.60
2022-08-12T17:48:34.888Z,1.55
2022-08-12T17:51:15.481Z,1.50
2022-08-12T17:54:10.586Z,1.48
2022-08-12T17:56:37.256Z,1.77
2022-08-12T17:59:12.694Z,2.00
2022-08-12T18:01:44.296Z,1.65
2022-08-12T18:04:23.097Z,1.42
2022-08-12T18:07:02.916Z,1.60
2022-08-12T18:09:36.403Z,1.60
2022-08-12T18:12:31.703Z,1.58
2022-08-12T18:15:09.180Z,1.65
2022-08-12T18:17:39.536Z,1.80
2022-08-12T18:20:15.704Z,1.70
2022-08-12T18:22:44.951Z,1.88
2022-08-12T18:26:15.204Z,2.08
2022-08-12T18:28:29.368Z,1.70
2022-08-12T18:31:03.510Z,1.42
2022-08-12T18:33:41.525Z,1.60
2022-08-12T18:36:13.417Z,1.67
2022-08-12T18:38:44.895Z,1.83
2022-08-12T18:41:33.619Z,2.00
2022-08-12T18:44:07.782Z,1.67
2022-08-12T18:46:53.371Z,1.40
2022-08-12T18:49:29.658Z,2.20
2022-08-12T18:52:04.904Z,1.80
2022-08-12T18:54:36.119Z,2.38
2022-08-12T18:57:19.856Z,2.05
2022-08-12T19:00:06.474Z,1.92
2022-08-12T19:02:39.810Z,2.00
2022-08-12T19:05:11.134Z,2.65
2022-08-12T19:07:49.354Z,3.13
2022-08-12T19:10:23.138Z,3.65
2022-08-12T19:13:10.594Z,3.33
2022-08-12T19:15:42.994Z,2.63
2022-08-12T19:18:14.825Z,3.10
2022-08-12T19:20:48.125Z,3.72
2022-08-12T19:23:21.136Z,3.35
2022-08-12T19:25:59.768Z,2.78
2022-08-12T19:28:34.897Z,2.78
2022-08-12T19:31:56.275Z,2.88
2022-08-12T19:34:56.500Z,2.85
2022-08-12T19:37:20.077Z,2.50
2022-08-12T19:40:08.640Z,2.60
2022-08-12T19:42:42.652Z,2.50
2022-08-12T19:45:15.734Z,2.38
2022-08-12T19:47:44.714Z,2.58
2022-08-12T19:50:19.748Z,3.15
2022-08-12T19:52:53.071Z,3.60
2022-08-12T19:55:23.468Z,4.00
2022-08-12T19:58:02.586Z,3.65
2022-08-12T20:00:34.738Z,2.55
2022-08-12T20:03:04.783Z,2.30
2022-08-12T20:06:05.170Z,2.33
2022-08-12T20:08:32.819Z,1.92
2022-08-12T20:12:14.177Z,2.28
2022-08-12T20:14:00.457Z,1.83
2022-08-12T20:19:52.344Z,1.70
2022-08-12T20:22:24.650Z,2.00
2022-08-12T20:24:58.322Z,1.75
2022-08-12T20:28:02.825Z,1.95
2022-08-12T20:30:20.274Z,1.90
2022-08-12T20:32:55.993Z,1.98
2022-08-12T20:35:39.036Z,1.75
2022-08-12T20:38:27.491Z,2.20
2022-08-12T20:40:56.204Z,1.92
2022-08-12T20:43:28.130Z,1.90
2022-08-12T20:46:00.074Z,2.28
2022-08-12T20:48:28.741Z,1.70
2022-08-12T20:51:04.672Z,1.85
2022-08-12T20:53:58.179Z,1.90
2022-08-12T20:56:30.743Z,1.80
2022-08-12T20:59:01.095Z,1.90
2022-08-12T21:01:47.021Z,1.63
2022-08-12T21:04:36.718Z,1.45
2022-08-12T21:07:08.688Z,2.08
2022-08-12T21:09:41.922Z,2.00
2022-08-12T21:12:31.014Z,1.80
2022-08-12T21:15:23.464Z,1.95
2022-08-12T21:18:11.149Z,1.90
2022-08-12T21:20:50.171Z,1.90
2022-08-12T21:23:21.186Z,1.60
2022-08-12T21:25:52.595Z,1.83
2022-08-12T21:28:27.813Z,2.10
2022-08-12T21:32:34.163Z,2.15
2022-08-12T21:34:07.429Z,1.70
2022-08-12T21:36:39.666Z,2.00
2022-08-12T21:39:18.097Z,2.10
2022-08-12T21:41:51.424Z,1.70
2022-08-12T21:44:24.555Z,1.92
2022-08-12T21:47:20.488Z,1.73
2022-08-12T21:50:03.476Z,1.45
2022-08-12T21:52:36.213Z,1.50
2022-08-12T21:55:08.206Z,1.88
2022-08-12T21:57:50.463Z,1.75
2022-08-12T22:00:20.901Z,1.70
2022-08-12T22:04:01.961Z,1.90
2022-08-12T22:06:30.723Z,1.55
2022-08-12T22:09:15.326Z,1.33
2022-08-12T22:11:49.130Z,1.77
2022-08-12T22:14:26.558Z,1.30
2022-08-12T22:16:56.025Z,1.60
2022-08-12T22:19:24.374Z,1.65
2022-08-12T22:21:54.919Z,1.52
2022-08-12T22:24:26.880Z,1.70
2022-08-12T22:26:59.564Z,1.60
2022-08-12T22:30:04.856Z,1.90
2022-08-12T22:32:33.653Z,1.40
2022-08-12T22:35:22.094Z,1.48
2022-08-12T22:37:53.516Z,1.65
2022-08-12T22:40:23.953Z,1.45
2022-08-12T22:43:15.386Z,2.08
2022-08-12T22:46:02.421Z,1.52
2022-08-12T22:48:30.679Z,1.58
2022-08-12T22:50:59.225Z,1.60
2022-08-12T22:53:36.342Z,1.63
2022-08-12T22:56:08.039Z,1.48
2022-08-12T22:58:40.408Z,1.40
2022-08-12T23:01:21.251Z,1.50
2022-08-12T23:04:00.572Z,1.38
2022-08-12T23:06:30.873Z,1.40
2022-08-12T23:08:59.427Z,1.70
2022-08-12T23:11:33.635Z,1.67
2022-08-12T23:14:04.314Z,1.58
2022-08-12T23:16:34.315Z,1.70
2022-08-12T23:19:09.659Z,1.33
2022-08-12T23:22:05.128Z,1.25
2022-08-12T23:24:41.177Z,1.50
2022-08-12T23:27:44.450Z,1.60
2022-08-12T23:30:24.725Z,1.05
2022-08-12T23:32:59.879Z,1.23
2022-08-12T23:35:45.738Z,1.27
2022-08-12T23:38:30.310Z,1.42
2022-08-12T23:41:01.183Z,1.50
2022-08-12T23:43:39.952Z,1.27
2022-08-12T23:46:10.508Z,1.48
2022-08-12T23:48:40.890Z,1.52
2022-08-12T23:51:23.139Z,1.30
2022-08-12T23:53:55.080Z,1.13
2022-08-12T23:56:24.720Z,1.23
2022-08-12T23:58:55.200Z,1.50
